sensor_id;sensor_type;location;lat;lon;timestamp;temperature;humidity
19970;DHT22;10146;47.754;9.566;2023-05-25T00:02:18;12.30;99.90
19970;DHT22;10146;47.754;9.566;2023-05-25T00:04:43;12.20;99.90
19970;DHT22;10146;47.754;9.566;2023-05-25T00:07:13;12.30;99.90
19970;DHT22;10146;47.754;9.566;2023-05-25T00:09:40;12.20;99.90
19970;DHT22;10146;47.754;9.566;2023-05-25T00:12:06;12.20;99.90
19970;DHT22;10146;47.754;9.566;2023-05-25T00:14:32;12.20;99.90
19970;DHT22;10146;47.754;9.566;2023-05-25T00:16:57;12.20;99.90
19970;DHT22;10146;47.754;9.566;2023-05-25T00:19:23;12.20;99.90
19970;DHT22;10146;47.754;9.566;2023-05-25T00:21:49;12.20;99.90
19970;DHT22;10146;47.754;9.566;2023-05-25T00:24:15;12.10;99.90
19970;DHT22;10146;47.754;9.566;2023-05-25T00:26:41;12.10;99.90
19970;DHT22;10146;47.754;9.566;2023-05-25T00:29:06;12.10;99.90
19970;DHT22;10146;47.754;9.566;2023-05-25T00:31:32;12.00;99.90
19970;DHT22;10146;47.754;9.566;2023-05-25T00:33:59;12.00;99.90
19970;DHT22;10146;47.754;9.566;2023-05-25T00:36:25;12.00;99.90
19970;DHT22;10146;47.754;9.566;2023-05-25T00:38:51;11.90;99.90
19970;DHT22;10146;47.754;9.566;2023-05-25T00:41:17;11.90;99.90
19970;DHT22;10146;47.754;9.566;2023-05-25T00:43:46;11.80;99.90
19970;DHT22;10146;47.754;9.566;2023-05-25T00:46:14;11.70;99.90
19970;DHT22;10146;47.754;9.566;2023-05-25T00:48:41;11.70;99.90
19970;DHT22;10146;47.754;9.566;2023-05-25T00:51:08;11.60;99.90
19970;DHT22;10146;47.754;9.566;2023-05-25T00:53:35;11.70;99.90
19970;DHT22;10146;47.754;9.566;2023-05-25T00:56:11;11.60;99.90
19970;DHT22;10146;47.754;9.566;2023-05-25T00:58:39;11.50;99.90
19970;DHT22;10146;47.754;9.566;2023-05-25T01:01:05;11.50;99.90
19970;DHT22;10146;47.754;9.566;2023-05-25T01:03:37;11.50;99.90
19970;DHT22;10146;47.754;9.566;2023-05-25T01:06:08;11.40;99.90
19970;DHT22;10146;47.754;9.566;2023-05-25T01:08:36;11.40;99.90
19970;DHT22;10146;47.754;9.566;2023-05-25T01:11:03;11.40;99.90
19970;DHT22;10146;47.754;9.566;2023-05-25T01:13:31;11.40;99.90
19970;DHT22;10146;47.754;9.566;2023-05-25T01:15:58;11.40;99.90
19970;DHT22;10146;47.754;9.566;2023-05-25T01:18:24;11.40;99.90
19970;DHT22;10146;47.754;9.566;2023-05-25T01:23:19;11.30;99.90
19970;DHT22;10146;47.754;9.566;2023-05-25T01:25:51;11.20;99.90
19970;DHT22;10146;47.754;9.566;2023-05-25T01:28:25;11.20;99.90
19970;DHT22;10146;47.754;9.566;2023-05-25T01:30:52;11.20;99.90
19970;DHT22;10146;47.754;9.566;2023-05-25T01:33:20;11.10;99.90
19970;DHT22;10146;47.754;9.566;2023-05-25T01:35:47;11.10;99.90
19970;DHT22;10146;47.754;9.566;2023-05-25T01:38:13;11.00;99.90
19970;DHT22;10146;47.754;9.566;2023-05-25T01:40:40;11.00;99.90
19970;DHT22;10146;47.754;9.566;2023-05-25T01:43:05;11.00;99.90
19970;DHT22;10146;47.754;9.566;2023-05-25T01:45:31;11.00;99.90
19970;DHT22;10146;47.754;9.566;2023-05-25T01:53:53;10.90;99.90
19970;DHT22;10146;47.754;9.566;2023-05-25T01:56:19;10.90;99.90
19970;DHT22;10146;47.754;9.566;2023-05-25T01:58:46;10.90;99.90
19970;DHT22;10146;47.754;9.566;2023-05-25T02:01:13;10.90;99.90
19970;DHT22;10146;47.754;9.566;2023-05-25T02:03:40;11.00;99.90
19970;DHT22;10146;47.754;9.566;2023-05-25T02:06:07;11.00;99.90
19970;DHT22;10146;47.754;9.566;2023-05-25T02:08:32;11.00;99.90
19970;DHT22;10146;47.754;9.566;2023-05-25T02:10:58;10.90;99.90
19970;DHT22;10146;47.754;9.566;2023-05-25T02:13:24;11.00;99.90
19970;DHT22;10146;47.754;9.566;2023-05-25T02:15:51;11.00;99.90
19970;DHT22;10146;47.754;9.566;2023-05-25T02:18:17;11.00;99.90
19970;DHT22;10146;47.754;9.566;2023-05-25T02:20:43;11.00;99.90
19970;DHT22;10146;47.754;9.566;2023-05-25T02:23:09;11.00;99.90
19970;DHT22;10146;47.754;9.566;2023-05-25T02:25:35;10.90;99.90
19970;DHT22;10146;47.754;9.566;2023-05-25T02:28:01;10.90;99.90
19970;DHT22;10146;47.754;9.566;2023-05-25T02:30:26;10.90;99.90
19970;DHT22;10146;47.754;9.566;2023-05-25T02:32:52;10.90;99.90
19970;DHT22;10146;47.754;9.566;2023-05-25T02:35:18;10.90;99.90
19970;DHT22;10146;47.754;9.566;2023-05-25T02:37:44;11.00;99.90
19970;DHT22;10146;47.754;9.566;2023-05-25T02:40:10;11.00;99.90
19970;DHT22;10146;47.754;9.566;2023-05-25T02:42:36;11.00;99.90
19970;DHT22;10146;47.754;9.566;2023-05-25T02:45:03;11.00;99.90
19970;DHT22;10146;47.754;9.566;2023-05-25T02:47:30;11.00;99.90
19970;DHT22;10146;47.754;9.566;2023-05-25T02:49:56;11.00;99.90
19970;DHT22;10146;47.754;9.566;2023-05-25T02:52:21;10.90;99.90
19970;DHT22;10146;47.754;9.566;2023-05-25T02:54:50;10.90;99.90
19970;DHT22;10146;47.754;9.566;2023-05-25T02:57:15;10.90;99.90
19970;DHT22;10146;47.754;9.566;2023-05-25T02:59:41;10.90;99.90
19970;DHT22;10146;47.754;9.566;2023-05-25T03:02:07;10.80;99.90
19970;DHT22;10146;47.754;9.566;2023-05-25T03:04:32;10.80;99.90
19970;DHT22;10146;47.754;9.566;2023-05-25T03:07:02;10.80;99.90
19970;DHT22;10146;47.754;9.566;2023-05-25T03:09:27;10.70;99.90
19970;DHT22;10146;47.754;9.566;2023-05-25T03:11:53;10.60;99.90
19970;DHT22;10146;47.754;9.566;2023-05-25T03:14:18;10.60;99.90
19970;DHT22;10146;47.754;9.566;2023-05-25T03:16:44;10.50;99.90
19970;DHT22;10146;47.754;9.566;2023-05-25T03:19:09;10.50;99.90
19970;DHT22;10146;47.754;9.566;2023-05-25T03:21:37;10.40;99.90
19970;DHT22;10146;47.754;9.566;2023-05-25T03:24:02;10.40;99.90
19970;DHT22;10146;47.754;9.566;2023-05-25T03:26:28;10.30;99.90
19970;DHT22;10146;47.754;9.566;2023-05-25T03:28:54;10.40;99.90
19970;DHT22;10146;47.754;9.566;2023-05-25T03:31:21;10.30;99.90
19970;DHT22;10146;47.754;9.566;2023-05-25T03:33:47;10.30;99.90
19970;DHT22;10146;47.754;9.566;2023-05-25T03:36:12;10.30;99.90
19970;DHT22;10146;47.754;9.566;2023-05-25T03:38:42;10.30;99.90
19970;DHT22;10146;47.754;9.566;2023-05-25T03:41:08;10.30;99.90
19970;DHT22;10146;47.754;9.566;2023-05-25T03:43:33;10.30;99.90
19970;DHT22;10146;47.754;9.566;2023-05-25T03:45:59;10.30;99.90
19970;DHT22;10146;47.754;9.566;2023-05-25T03:48:25;10.20;99.90
19970;DHT22;10146;47.754;9.566;2023-05-25T03:50:50;10.20;99.90
19970;DHT22;10146;47.754;9.566;2023-05-25T03:53:16;10.20;99.90
19970;DHT22;10146;47.754;9.566;2023-05-25T03:55:42;10.20;99.90
19970;DHT22;10146;47.754;9.566;2023-05-25T03:58:07;10.10;99.90
19970;DHT22;10146;47.754;9.566;2023-05-25T04:00:35;10.10;99.90
19970;DHT22;10146;47.754;9.566;2023-05-25T04:03:01;10.10;99.90
19970;DHT22;10146;47.754;9.566;2023-05-25T04:05:26;10.10;99.90
19970;DHT22;10146;47.754;9.566;2023-05-25T04:07:52;10.20;99.90
19970;DHT22;10146;47.754;9.566;2023-05-25T04:10:17;10.30;99.90
19970;DHT22;10146;47.754;9.566;2023-05-25T04:12:43;10.30;99.90
19970;DHT22;10146;47.754;9.566;2023-05-25T04:15:09;10.30;99.90
19970;DHT22;10146;47.754;9.566;2023-05-25T04:17:36;10.30;99.90
19970;DHT22;10146;47.754;9.566;2023-05-25T04:20:02;10.30;99.90
19970;DHT22;10146;47.754;9.566;2023-05-25T04:22:28;10.30;99.90
19970;DHT22;10146;47.754;9.566;2023-05-25T04:24:54;10.30;99.90
19970;DHT22;10146;47.754;9.566;2023-05-25T04:27:19;10.30;99.90
19970;DHT22;10146;47.754;9.566;2023-05-25T04:29:46;10.30;99.90
19970;DHT22;10146;47.754;9.566;2023-05-25T04:32:14;10.30;99.90
19970;DHT22;10146;47.754;9.566;2023-05-25T04:34:42;10.40;99.90
19970;DHT22;10146;47.754;9.566;2023-05-25T04:37:09;10.40;99.90
19970;DHT22;10146;47.754;9.566;2023-05-25T04:39:35;10.50;99.90
19970;DHT22;10146;47.754;9.566;2023-05-25T04:42:00;10.50;99.90
19970;DHT22;10146;47.754;9.566;2023-05-25T04:44:31;10.50;99.90
19970;DHT22;10146;47.754;9.566;2023-05-25T04:46:56;10.50;99.90
19970;DHT22;10146;47.754;9.566;2023-05-25T04:49:24;10.50;99.90
19970;DHT22;10146;47.754;9.566;2023-05-25T04:51:51;10.60;99.90
19970;DHT22;10146;47.754;9.566;2023-05-25T04:54:16;10.60;99.90
19970;DHT22;10146;47.754;9.566;2023-05-25T04:56:42;10.60;99.90
19970;DHT22;10146;47.754;9.566;2023-05-25T04:59:08;10.70;99.90
19970;DHT22;10146;47.754;9.566;2023-05-25T05:01:34;10.70;99.90
19970;DHT22;10146;47.754;9.566;2023-05-25T05:04:07;10.70;99.90
19970;DHT22;10146;47.754;9.566;2023-05-25T05:06:33;10.70;99.90
19970;DHT22;10146;47.754;9.566;2023-05-25T05:08:59;10.80;99.90
19970;DHT22;10146;47.754;9.566;2023-05-25T05:11:28;10.80;99.90
19970;DHT22;10146;47.754;9.566;2023-05-25T05:13:54;10.90;99.90
19970;DHT22;10146;47.754;9.566;2023-05-25T05:16:20;10.90;99.90
19970;DHT22;10146;47.754;9.566;2023-05-25T05:18:46;10.90;99.90
19970;DHT22;10146;47.754;9.566;2023-05-25T05:21:12;11.00;99.90
19970;DHT22;10146;47.754;9.566;2023-05-25T05:23:38;11.00;99.90
19970;DHT22;10146;47.754;9.566;2023-05-25T05:26:03;11.20;99.90
19970;DHT22;10146;47.754;9.566;2023-05-25T05:28:31;11.20;99.90
19970;DHT22;10146;47.754;9.566;2023-05-25T05:30:57;11.30;99.90
19970;DHT22;10146;47.754;9.566;2023-05-25T05:33:22;11.30;99.90
19970;DHT22;10146;47.754;9.566;2023-05-25T05:35:49;11.50;99.90
19970;DHT22;10146;47.754;9.566;2023-05-25T05:38:14;11.50;99.90
19970;DHT22;10146;47.754;9.566;2023-05-25T05:40:40;11.60;99.90
19970;DHT22;10146;47.754;9.566;2023-05-25T05:43:08;11.70;99.90
19970;DHT22;10146;47.754;9.566;2023-05-25T05:45:34;11.80;99.90
19970;DHT22;10146;47.754;9.566;2023-05-25T05:47:59;11.80;99.90
19970;DHT22;10146;47.754;9.566;2023-05-25T05:50:25;11.90;99.90
19970;DHT22;10146;47.754;9.566;2023-05-25T05:52:51;12.00;99.90
19970;DHT22;10146;47.754;9.566;2023-05-25T05:55:18;12.10;99.90
19970;DHT22;10146;47.754;9.566;2023-05-25T05:57:44;12.20;99.90
19970;DHT22;10146;47.754;9.566;2023-05-25T06:00:10;12.30;99.90
19970;DHT22;10146;47.754;9.566;2023-05-25T06:02:36;12.40;99.90
19970;DHT22;10146;47.754;9.566;2023-05-25T06:05:02;12.40;99.90
19970;DHT22;10146;47.754;9.566;2023-05-25T06:07:28;12.40;99.90
19970;DHT22;10146;47.754;9.566;2023-05-25T06:09:55;12.50;99.90
19970;DHT22;10146;47.754;9.566;2023-05-25T06:12:21;12.50;99.90
19970;DHT22;10146;47.754;9.566;2023-05-25T06:14:46;12.50;99.90
19970;DHT22;10146;47.754;9.566;2023-05-25T06:17:14;12.60;99.90
19970;DHT22;10146;47.754;9.566;2023-05-25T06:19:41;12.60;99.90
19970;DHT22;10146;47.754;9.566;2023-05-25T06:22:06;12.70;99.90
19970;DHT22;10146;47.754;9.566;2023-05-25T06:24:32;12.90;99.90
19970;DHT22;10146;47.754;9.566;2023-05-25T06:26:58;13.00;99.90
19970;DHT22;10146;47.754;9.566;2023-05-25T06:29:23;12.90;99.90
19970;DHT22;10146;47.754;9.566;2023-05-25T06:31:49;12.90;99.90
19970;DHT22;10146;47.754;9.566;2023-05-25T06:34:14;13.00;99.90
19970;DHT22;10146;47.754;9.566;2023-05-25T06:36:40;13.00;99.90
19970;DHT22;10146;47.754;9.566;2023-05-25T06:39:06;13.10;99.90
19970;DHT22;10146;47.754;9.566;2023-05-25T06:41:31;13.10;99.90
19970;DHT22;10146;47.754;9.566;2023-05-25T06:43:57;13.20;99.90
19970;DHT22;10146;47.754;9.566;2023-05-25T06:46:22;13.30;99.90
19970;DHT22;10146;47.754;9.566;2023-05-25T06:48:48;13.50;99.90
19970;DHT22;10146;47.754;9.566;2023-05-25T06:51:14;13.60;99.90
19970;DHT22;10146;47.754;9.566;2023-05-25T06:53:39;13.80;99.90
19970;DHT22;10146;47.754;9.566;2023-05-25T06:56:05;13.90;99.90
19970;DHT22;10146;47.754;9.566;2023-05-25T06:58:31;14.10;99.90
19970;DHT22;10146;47.754;9.566;2023-05-25T07:00:56;14.10;99.90
19970;DHT22;10146;47.754;9.566;2023-05-25T07:03:22;14.30;99.90
19970;DHT22;10146;47.754;9.566;2023-05-25T07:05:48;14.50;99.90
19970;DHT22;10146;47.754;9.566;2023-05-25T07:08:13;14.70;99.90
19970;DHT22;10146;47.754;9.566;2023-05-25T07:10:39;15.00;99.90
19970;DHT22;10146;47.754;9.566;2023-05-25T07:13:05;15.10;99.90
19970;DHT22;10146;47.754;9.566;2023-05-25T07:15:30;15.10;99.90
19970;DHT22;10146;47.754;9.566;2023-05-25T07:17:56;15.10;99.90
19970;DHT22;10146;47.754;9.566;2023-05-25T07:20:22;15.10;99.90
19970;DHT22;10146;47.754;9.566;2023-05-25T07:22:48;15.30;99.90
19970;DHT22;10146;47.754;9.566;2023-05-25T07:25:14;15.50;99.90
19970;DHT22;10146;47.754;9.566;2023-05-25T07:27:39;15.50;99.90
19970;DHT22;10146;47.754;9.566;2023-05-25T07:30:07;15.50;99.90
19970;DHT22;10146;47.754;9.566;2023-05-25T07:32:33;15.60;99.90
19970;DHT22;10146;47.754;9.566;2023-05-25T07:34:58;15.60;99.90
19970;DHT22;10146;47.754;9.566;2023-05-25T07:37:24;15.70;99.90
19970;DHT22;10146;47.754;9.566;2023-05-25T07:39:50;16.00;99.90
19970;DHT22;10146;47.754;9.566;2023-05-25T07:42:16;16.10;99.90
19970;DHT22;10146;47.754;9.566;2023-05-25T07:44:46;16.10;99.90
19970;DHT22;10146;47.754;9.566;2023-05-25T07:47:11;16.20;99.90
19970;DHT22;10146;47.754;9.566;2023-05-25T07:49:37;16.20;99.90
19970;DHT22;10146;47.754;9.566;2023-05-25T07:52:03;16.00;99.90
19970;DHT22;10146;47.754;9.566;2023-05-25T07:54:30;16.00;99.90
19970;DHT22;10146;47.754;9.566;2023-05-25T07:56:56;16.00;99.90
19970;DHT22;10146;47.754;9.566;2023-05-25T07:59:21;16.20;99.90
19970;DHT22;10146;47.754;9.566;2023-05-25T08:01:47;16.30;99.90
19970;DHT22;10146;47.754;9.566;2023-05-25T08:04:12;16.20;99.90
19970;DHT22;10146;47.754;9.566;2023-05-25T08:06:38;16.30;99.90
19970;DHT22;10146;47.754;9.566;2023-05-25T08:09:04;16.40;99.90
19970;DHT22;10146;47.754;9.566;2023-05-25T08:11:32;16.40;99.90
19970;DHT22;10146;47.754;9.566;2023-05-25T08:13:58;16.70;99.90
19970;DHT22;10146;47.754;9.566;2023-05-25T08:16:24;16.70;99.90
19970;DHT22;10146;47.754;9.566;2023-05-25T08:18:50;16.80;99.90
19970;DHT22;10146;47.754;9.566;2023-05-25T08:21:16;17.00;99.90
19970;DHT22;10146;47.754;9.566;2023-05-25T08:23:42;17.20;99.90
19970;DHT22;10146;47.754;9.566;2023-05-25T08:26:08;17.30;99.90
19970;DHT22;10146;47.754;9.566;2023-05-25T08:28:34;17.40;99.90
19970;DHT22;10146;47.754;9.566;2023-05-25T08:31:00;17.20;99.90
19970;DHT22;10146;47.754;9.566;2023-05-25T08:33:25;17.10;99.90
19970;DHT22;10146;47.754;9.566;2023-05-25T08:35:51;17.00;99.90
19970;DHT22;10146;47.754;9.566;2023-05-25T08:38:17;17.10;99.90
19970;DHT22;10146;47.754;9.566;2023-05-25T08:40:44;17.20;99.90
19970;DHT22;10146;47.754;9.566;2023-05-25T08:43:10;17.30;99.90
19970;DHT22;10146;47.754;9.566;2023-05-25T08:45:35;17.50;99.90
19970;DHT22;10146;47.754;9.566;2023-05-25T08:48:03;17.40;99.90
19970;DHT22;10146;47.754;9.566;2023-05-25T08:50:35;17.70;99.90
19970;DHT22;10146;47.754;9.566;2023-05-25T08:53:07;17.90;99.90
19970;DHT22;10146;47.754;9.566;2023-05-25T08:55:36;18.10;99.90
19970;DHT22;10146;47.754;9.566;2023-05-25T08:58:16;18.40;99.90
19970;DHT22;10146;47.754;9.566;2023-05-25T09:00:57;18.20;99.90
19970;DHT22;10146;47.754;9.566;2023-05-25T09:03:26;18.00;99.90
19970;DHT22;10146;47.754;9.566;2023-05-25T09:05:55;18.00;99.90
19970;DHT22;10146;47.754;9.566;2023-05-25T09:08:21;18.10;99.90
19970;DHT22;10146;47.754;9.566;2023-05-25T09:10:47;18.10;99.90
19970;DHT22;10146;47.754;9.566;2023-05-25T09:13:14;18.30;99.90
19970;DHT22;10146;47.754;9.566;2023-05-25T09:15:39;18.50;99.90
19970;DHT22;10146;47.754;9.566;2023-05-25T09:18:05;18.60;99.90
19970;DHT22;10146;47.754;9.566;2023-05-25T09:20:30;18.70;99.90
19970;DHT22;10146;47.754;9.566;2023-05-25T09:22:57;18.60;99.90
19970;DHT22;10146;47.754;9.566;2023-05-25T09:25:27;18.60;99.90
19970;DHT22;10146;47.754;9.566;2023-05-25T09:27:54;18.50;99.90
19970;DHT22;10146;47.754;9.566;2023-05-25T09:30:23;18.70;99.90
19970;DHT22;10146;47.754;9.566;2023-05-25T09:32:49;18.70;99.90
19970;DHT22;10146;47.754;9.566;2023-05-25T09:35:16;18.40;99.90
19970;DHT22;10146;47.754;9.566;2023-05-25T09:37:43;18.40;99.90
19970;DHT22;10146;47.754;9.566;2023-05-25T09:40:09;18.50;99.90
19970;DHT22;10146;47.754;9.566;2023-05-25T09:42:36;18.70;99.90
19970;DHT22;10146;47.754;9.566;2023-05-25T09:45:02;18.80;99.90
19970;DHT22;10146;47.754;9.566;2023-05-25T09:47:28;18.70;99.90
19970;DHT22;10146;47.754;9.566;2023-05-25T09:49:57;18.70;99.90
19970;DHT22;10146;47.754;9.566;2023-05-25T09:52:23;18.70;99.90
19970;DHT22;10146;47.754;9.566;2023-05-25T09:54:50;18.70;99.90
19970;DHT22;10146;47.754;9.566;2023-05-25T09:57:19;18.90;99.90
19970;DHT22;10146;47.754;9.566;2023-05-25T09:59:44;19.10;99.90
19970;DHT22;10146;47.754;9.566;2023-05-25T10:02:12;19.00;99.90
19970;DHT22;10146;47.754;9.566;2023-05-25T10:04:38;19.00;99.90
19970;DHT22;10146;47.754;9.566;2023-05-25T10:07:04;19.10;99.90
19970;DHT22;10146;47.754;9.566;2023-05-25T10:09:31;19.00;99.90
19970;DHT22;10146;47.754;9.566;2023-05-25T10:12:00;18.90;99.90
19970;DHT22;10146;47.754;9.566;2023-05-25T10:14:27;19.00;99.90
19970;DHT22;10146;47.754;9.566;2023-05-25T10:16:54;19.20;99.90
19970;DHT22;10146;47.754;9.566;2023-05-25T10:22:11;19.20;99.90
19970;DHT22;10146;47.754;9.566;2023-05-25T10:24:48;19.40;99.90
19970;DHT22;10146;47.754;9.566;2023-05-25T10:27:19;19.40;99.90
19970;DHT22;10146;47.754;9.566;2023-05-25T10:29:51;19.20;99.90
19970;DHT22;10146;47.754;9.566;2023-05-25T10:32:17;19.20;99.90
19970;DHT22;10146;47.754;9.566;2023-05-25T10:34:44;19.40;99.90
19970;DHT22;10146;47.754;9.566;2023-05-25T10:37:11;19.40;99.90
19970;DHT22;10146;47.754;9.566;2023-05-25T10:39:39;19.20;99.90
19970;DHT22;10146;47.754;9.566;2023-05-25T10:42:05;19.20;99.90
19970;DHT22;10146;47.754;9.566;2023-05-25T10:44:31;19.40;99.90
19970;DHT22;10146;47.754;9.566;2023-05-25T10:47:01;19.30;99.90
19970;DHT22;10146;47.754;9.566;2023-05-25T10:49:31;19.40;99.90
19970;DHT22;10146;47.754;9.566;2023-05-25T10:52:01;19.20;99.90
19970;DHT22;10146;47.754;9.566;2023-05-25T10:54:32;19.30;99.90
19970;DHT22;10146;47.754;9.566;2023-05-25T10:57:19;19.50;99.90
19970;DHT22;10146;47.754;9.566;2023-05-25T10:59:52;19.70;99.90
19970;DHT22;10146;47.754;9.566;2023-05-25T11:02:29;19.80;99.90
19970;DHT22;10146;47.754;9.566;2023-05-25T11:07:57;19.80;99.90
19970;DHT22;10146;47.754;9.566;2023-05-25T11:10:42;19.80;99.90
19970;DHT22;10146;47.754;9.566;2023-05-25T11:24:11;20.70;99.90
19970;DHT22;10146;47.754;9.566;2023-05-25T11:26:39;20.90;99.90
19970;DHT22;10146;47.754;9.566;2023-05-25T11:29:16;20.70;99.90
19970;DHT22;10146;47.754;9.566;2023-05-25T11:31:44;20.40;99.90
19970;DHT22;10146;47.754;9.566;2023-05-25T11:34:16;20.50;99.90
19970;DHT22;10146;47.754;9.566;2023-05-25T11:36:43;20.60;99.90
19970;DHT22;10146;47.754;9.566;2023-05-25T11:39:08;20.90;99.90
19970;DHT22;10146;47.754;9.566;2023-05-25T11:41:35;21.00;99.90
19970;DHT22;10146;47.754;9.566;2023-05-25T11:44:04;21.10;99.90
19970;DHT22;10146;47.754;9.566;2023-05-25T11:46:31;21.20;99.90
19970;DHT22;10146;47.754;9.566;2023-05-25T11:48:58;21.30;99.90
19970;DHT22;10146;47.754;9.566;2023-05-25T11:51:25;21.20;99.90
19970;DHT22;10146;47.754;9.566;2023-05-25T11:53:51;21.40;99.90
19970;DHT22;10146;47.754;9.566;2023-05-25T11:56:18;21.60;99.90
19970;DHT22;10146;47.754;9.566;2023-05-25T11:58:45;21.50;99.90
19970;DHT22;10146;47.754;9.566;2023-05-25T12:01:21;21.30;99.90
19970;DHT22;10146;47.754;9.566;2023-05-25T12:03:49;21.40;99.90
19970;DHT22;10146;47.754;9.566;2023-05-25T12:06:33;21.50;99.90
19970;DHT22;10146;47.754;9.566;2023-05-25T12:09:01;21.50;99.90
19970;DHT22;10146;47.754;9.566;2023-05-25T12:11:35;21.50;99.90
19970;DHT22;10146;47.754;9.566;2023-05-25T12:14:04;21.70;99.90
19970;DHT22;10146;47.754;9.566;2023-05-25T12:16:31;21.80;99.90
19970;DHT22;10146;47.754;9.566;2023-05-25T12:18:57;21.60;99.90
19970;DHT22;10146;47.754;9.566;2023-05-25T12:21:23;21.20;99.90
19970;DHT22;10146;47.754;9.566;2023-05-25T12:23:49;21.30;99.90
19970;DHT22;10146;47.754;9.566;2023-05-25T12:26:17;21.70;99.90
19970;DHT22;10146;47.754;9.566;2023-05-25T12:29:04;22.00;99.90
19970;DHT22;10146;47.754;9.566;2023-05-25T12:31:31;22.30;99.90
19970;DHT22;10146;47.754;9.566;2023-05-25T12:34:15;22.40;99.90
19970;DHT22;10146;47.754;9.566;2023-05-25T12:36:43;22.60;99.90
19970;DHT22;10146;47.754;9.566;2023-05-25T12:39:10;22.00;99.90
19970;DHT22;10146;47.754;9.566;2023-05-25T12:41:46;21.70;99.90
19970;DHT22;10146;47.754;9.566;2023-05-25T12:44:26;22.00;99.90
19970;DHT22;10146;47.754;9.566;2023-05-25T12:46:54;22.10;99.90
19970;DHT22;10146;47.754;9.566;2023-05-25T12:49:25;22.00;99.90
19970;DHT22;10146;47.754;9.566;2023-05-25T12:51:51;22.30;99.90
19970;DHT22;10146;47.754;9.566;2023-05-25T12:57:06;22.30;99.90
19970;DHT22;10146;47.754;9.566;2023-05-25T12:59:35;22.30;99.90
19970;DHT22;10146;47.754;9.566;2023-05-25T13:02:03;22.40;99.90
19970;DHT22;10146;47.754;9.566;2023-05-25T13:04:29;22.40;99.90
19970;DHT22;10146;47.754;9.566;2023-05-25T13:06:55;22.50;99.90
19970;DHT22;10146;47.754;9.566;2023-05-25T13:09:24;22.60;99.90
19970;DHT22;10146;47.754;9.566;2023-05-25T13:11:54;22.70;99.90
19970;DHT22;10146;47.754;9.566;2023-05-25T13:14:20;22.90;99.90
19970;DHT22;10146;47.754;9.566;2023-05-25T13:16:47;23.20;99.90
19970;DHT22;10146;47.754;9.566;2023-05-25T13:19:13;23.20;99.90
19970;DHT22;10146;47.754;9.566;2023-05-25T13:21:38;23.50;99.90
19970;DHT22;10146;47.754;9.566;2023-05-25T13:24:04;23.90;99.60
19970;DHT22;10146;47.754;9.566;2023-05-25T13:26:30;24.00;97.90
19970;DHT22;10146;47.754;9.566;2023-05-25T13:28:56;23.90;98.00
19970;DHT22;10146;47.754;9.566;2023-05-25T13:31:21;23.90;97.00
19970;DHT22;10146;47.754;9.566;2023-05-25T13:33:47;23.50;97.40
19970;DHT22;10146;47.754;9.566;2023-05-25T13:36:12;23.70;97.90
19970;DHT22;10146;47.754;9.566;2023-05-25T13:38:39;24.10;96.80
19970;DHT22;10146;47.754;9.566;2023-05-25T13:41:05;24.40;94.80
19970;DHT22;10146;47.754;9.566;2023-05-25T13:43:31;24.60;94.10
19970;DHT22;10146;47.754;9.566;2023-05-25T13:45:56;24.70;94.30
19970;DHT22;10146;47.754;9.566;2023-05-25T13:48:23;24.60;93.10
19970;DHT22;10146;47.754;9.566;2023-05-25T13:50:49;24.50;93.30
19970;DHT22;10146;47.754;9.566;2023-05-25T13:53:15;24.80;92.40
19970;DHT22;10146;47.754;9.566;2023-05-25T13:55:41;24.70;92.40
19970;DHT22;10146;47.754;9.566;2023-05-25T13:58:07;25.00;91.80
19970;DHT22;10146;47.754;9.566;2023-05-25T14:00:33;25.40;91.50
19970;DHT22;10146;47.754;9.566;2023-05-25T14:02:59;25.90;90.40
19970;DHT22;10146;47.754;9.566;2023-05-25T14:05:25;25.10;90.30
19970;DHT22;10146;47.754;9.566;2023-05-25T14:07:51;24.40;91.50
19970;DHT22;10146;47.754;9.566;2023-05-25T14:10:17;24.80;91.50
19970;DHT22;10146;47.754;9.566;2023-05-25T14:12:43;25.60;90.70
19970;DHT22;10146;47.754;9.566;2023-05-25T14:15:09;25.50;88.40
19970;DHT22;10146;47.754;9.566;2023-05-25T14:17:34;25.30;89.40
19970;DHT22;10146;47.754;9.566;2023-05-25T14:20:00;25.60;86.80
19970;DHT22;10146;47.754;9.566;2023-05-25T14:22:30;25.90;85.40
19970;DHT22;10146;47.754;9.566;2023-05-25T14:24:55;25.60;85.10
19970;DHT22;10146;47.754;9.566;2023-05-25T14:27:21;25.40;85.70
19970;DHT22;10146;47.754;9.566;2023-05-25T14:29:48;25.40;85.40
19970;DHT22;10146;47.754;9.566;2023-05-25T14:32:14;25.80;84.40
19970;DHT22;10146;47.754;9.566;2023-05-25T14:34:41;25.90;83.10
19970;DHT22;10146;47.754;9.566;2023-05-25T14:37:07;26.30;82.00
19970;DHT22;10146;47.754;9.566;2023-05-25T14:39:33;26.50;80.40
19970;DHT22;10146;47.754;9.566;2023-05-25T14:42:00;26.10;81.50
19970;DHT22;10146;47.754;9.566;2023-05-25T14:44:27;26.70;82.00
19970;DHT22;10146;47.754;9.566;2023-05-25T14:46:53;26.80;79.70
19970;DHT22;10146;47.754;9.566;2023-05-25T14:49:18;27.10;78.70
19970;DHT22;10146;47.754;9.566;2023-05-25T14:51:45;26.90;78.00
19970;DHT22;10146;47.754;9.566;2023-05-25T14:54:11;27.20;76.50
19970;DHT22;10146;47.754;9.566;2023-05-25T14:56:37;27.70;75.30
19970;DHT22;10146;47.754;9.566;2023-05-25T14:59:03;28.10;72.70
19970;DHT22;10146;47.754;9.566;2023-05-25T15:01:29;28.20;72.00
19970;DHT22;10146;47.754;9.566;2023-05-25T15:03:54;28.90;70.30
19970;DHT22;10146;47.754;9.566;2023-05-25T15:06:20;28.30;70.30
19970;DHT22;10146;47.754;9.566;2023-05-25T15:08:46;29.00;69.50
19970;DHT22;10146;47.754;9.566;2023-05-25T15:11:11;29.80;66.60
19970;DHT22;10146;47.754;9.566;2023-05-25T15:13:37;30.10;64.90
19970;DHT22;10146;47.754;9.566;2023-05-25T15:16:05;29.40;66.20
19970;DHT22;10146;47.754;9.566;2023-05-25T15:18:30;29.40;65.60
19970;DHT22;10146;47.754;9.566;2023-05-25T15:20:56;29.70;64.40
19970;DHT22;10146;47.754;9.566;2023-05-25T15:23:22;30.40;63.20
19970;DHT22;10146;47.754;9.566;2023-05-25T15:25:48;30.80;62.70
19970;DHT22;10146;47.754;9.566;2023-05-25T15:28:14;30.90;61.60
19970;DHT22;10146;47.754;9.566;2023-05-25T15:30:39;31.30;60.60
19970;DHT22;10146;47.754;9.566;2023-05-25T15:33:05;31.50;59.40
19970;DHT22;10146;47.754;9.566;2023-05-25T15:35:30;31.50;58.80
19970;DHT22;10146;47.754;9.566;2023-05-25T15:38:00;31.40;58.80
19970;DHT22;10146;47.754;9.566;2023-05-25T15:40:26;31.30;58.60
19970;DHT22;10146;47.754;9.566;2023-05-25T15:42:51;31.40;57.70
19970;DHT22;10146;47.754;9.566;2023-05-25T15:45:17;31.60;56.60
19970;DHT22;10146;47.754;9.566;2023-05-25T15:47:43;31.30;57.00
19970;DHT22;10146;47.754;9.566;2023-05-25T15:50:10;30.90;57.10
19970;DHT22;10146;47.754;9.566;2023-05-25T15:52:35;29.90;59.50
19970;DHT22;10146;47.754;9.566;2023-05-25T15:55:01;29.30;61.50
19970;DHT22;10146;47.754;9.566;2023-05-25T15:57:27;28.70;63.10